sensor_id;sensor_type;location;lat;lon;timestamp;P1;durP1;ratioP1;P2;durP2;ratioP2
35993;SDS011;22066;54.274;18.578;2022-12-10T00:01:13;40.23;;;16.27;;
35993;SDS011;22066;54.274;18.578;2022-12-10T00:03:40;40.22;;;15.38;;
35993;SDS011;22066;54.274;18.578;2022-12-10T00:06:07;37.73;;;15.07;;
35993;SDS011;22066;54.274;18.578;2022-12-10T00:08:34;47.43;;;17.37;;
35993;SDS011;22066;54.274;18.578;2022-12-10T00:11:02;50.07;;;16.70;;
35993;SDS011;22066;54.274;18.578;2022-12-10T00:13:28;40.28;;;15.20;;
35993;SDS011;22066;54.274;18.578;2022-12-10T00:15:54;40.47;;;16.80;;
35993;SDS011;22066;54.274;18.578;2022-12-10T00:18:20;42.30;;;15.53;;
35993;SDS011;22066;54.274;18.578;2022-12-10T00:20:46;41.17;;;14.60;;
35993;SDS011;22066;54.274;18.578;2022-12-10T00:23:12;41.37;;;15.47;;
35993;SDS011;22066;54.274;18.578;2022-12-10T00:25:38;35.43;;;14.73;;
35993;SDS011;22066;54.274;18.578;2022-12-10T00:28:04;44.83;;;17.30;;
35993;SDS011;22066;54.274;18.578;2022-12-10T00:30:30;40.70;;;15.90;;
35993;SDS011;22066;54.274;18.578;2022-12-10T00:32:56;39.40;;;16.63;;
35993;SDS011;22066;54.274;18.578;2022-12-10T00:35:22;40.27;;;16.47;;
35993;SDS011;22066;54.274;18.578;2022-12-10T00:37:48;32.70;;;14.30;;
35993;SDS011;22066;54.274;18.578;2022-12-10T00:40:14;37.00;;;16.37;;
35993;SDS011;22066;54.274;18.578;2022-12-10T00:42:40;37.00;;;14.93;;
35993;SDS011;22066;54.274;18.578;2022-12-10T00:45:06;34.70;;;14.43;;
35993;SDS011;22066;54.274;18.578;2022-12-10T00:47:32;38.13;;;14.00;;
35993;SDS011;22066;54.274;18.578;2022-12-10T00:49:58;44.20;;;13.63;;
35993;SDS011;22066;54.274;18.578;2022-12-10T00:52:24;42.77;;;15.60;;
35993;SDS011;22066;54.274;18.578;2022-12-10T00:54:50;41.00;;;15.00;;
35993;SDS011;22066;54.274;18.578;2022-12-10T00:57:16;45.97;;;15.67;;
35993;SDS011;22066;54.274;18.578;2022-12-10T00:59:42;42.83;;;15.37;;
35993;SDS011;22066;54.274;18.578;2022-12-10T01:02:08;43.03;;;13.97;;
35993;SDS011;22066;54.274;18.578;2022-12-10T01:04:34;49.70;;;14.73;;
35993;SDS011;22066;54.274;18.578;2022-12-10T01:07:00;40.80;;;15.80;;
35993;SDS011;22066;54.274;18.578;2022-12-10T01:09:27;44.20;;;15.70;;
35993;SDS011;22066;54.274;18.578;2022-12-10T01:11:54;36.10;;;13.67;;
35993;SDS011;22066;54.274;18.578;2022-12-10T01:14:21;43.70;;;15.77;;
35993;SDS011;22066;54.274;18.578;2022-12-10T01:16:49;43.33;;;15.90;;
35993;SDS011;22066;54.274;18.578;2022-12-10T01:19:15;39.13;;;14.30;;
35993;SDS011;22066;54.274;18.578;2022-12-10T01:21:41;36.53;;;14.23;;
35993;SDS011;22066;54.274;18.578;2022-12-10T01:24:07;37.17;;;13.93;;
35993;SDS011;22066;54.274;18.578;2022-12-10T01:26:34;29.90;;;12.30;;
35993;SDS011;22066;54.274;18.578;2022-12-10T01:29:00;36.87;;;12.10;;
35993;SDS011;22066;54.274;18.578;2022-12-10T01:31:30;33.70;;;13.33;;
35993;SDS011;22066;54.274;18.578;2022-12-10T01:33:57;28.13;;;12.43;;
35993;SDS011;22066;54.274;18.578;2022-12-10T01:36:27;34.80;;;13.23;;
35993;SDS011;22066;54.274;18.578;2022-12-10T01:38:54;31.10;;;12.10;;
35993;SDS011;22066;54.274;18.578;2022-12-10T01:41:21;30.07;;;11.53;;
35993;SDS011;22066;54.274;18.578;2022-12-10T01:46:17;27.37;;;11.43;;
35993;SDS011;22066;54.274;18.578;2022-12-10T01:48:44;32.70;;;12.83;;
35993;SDS011;22066;54.274;18.578;2022-12-10T01:51:10;33.20;;;13.23;;
35993;SDS011;22066;54.274;18.578;2022-12-10T01:53:37;27.77;;;11.17;;
35993;SDS011;22066;54.274;18.578;2022-12-10T01:56:03;27.10;;;11.03;;
35993;SDS011;22066;54.274;18.578;2022-12-10T01:58:29;32.50;;;11.73;;
35993;SDS011;22066;54.274;18.578;2022-12-10T02:03:37;26.63;;;11.50;;
35993;SDS011;22066;54.274;18.578;2022-12-10T02:11:24;29.23;;;11.43;;
35993;SDS011;22066;54.274;18.578;2022-12-10T02:14:05;29.80;;;11.37;;
35993;SDS011;22066;54.274;18.578;2022-12-10T02:16:36;32.23;;;12.03;;
35993;SDS011;22066;54.274;18.578;2022-12-10T02:19:20;33.97;;;11.10;;
35993;SDS011;22066;54.274;18.578;2022-12-10T02:21:47;30.43;;;11.63;;
35993;SDS011;22066;54.274;18.578;2022-12-10T02:24:15;28.73;;;11.60;;
35993;SDS011;22066;54.274;18.578;2022-12-10T02:26:44;34.37;;;12.20;;
35993;SDS011;22066;54.274;18.578;2022-12-10T02:29:15;34.73;;;12.90;;
35993;SDS011;22066;54.274;18.578;2022-12-10T02:31:45;31.80;;;12.07;;
35993;SDS011;22066;54.274;18.578;2022-12-10T02:34:12;29.93;;;12.73;;
35993;SDS011;22066;54.274;18.578;2022-12-10T02:36:38;34.90;;;13.90;;
35993;SDS011;22066;54.274;18.578;2022-12-10T02:39:06;34.37;;;12.83;;
35993;SDS011;22066;54.274;18.578;2022-12-10T02:41:37;23.88;;;9.65;;
35993;SDS011;22066;54.274;18.578;2022-12-10T02:44:07;26.47;;;11.27;;
35993;SDS011;22066;54.274;18.578;2022-12-10T02:46:34;29.67;;;11.90;;
35993;SDS011;22066;54.274;18.578;2022-12-10T02:49:02;15.60;;;7.77;;
35993;SDS011;22066;54.274;18.578;2022-12-10T02:51:29;28.07;;;12.47;;
35993;SDS011;22066;54.274;18.578;2022-12-10T02:53:59;27.83;;;11.30;;
35993;SDS011;22066;54.274;18.578;2022-12-10T02:56:49;32.13;;;12.10;;
35993;SDS011;22066;54.274;18.578;2022-12-10T03:02:02;25.13;;;11.30;;
35993;SDS011;22066;54.274;18.578;2022-12-10T03:07:02;36.40;;;12.27;;
35993;SDS011;22066;54.274;18.578;2022-12-10T03:09:39;31.38;;;11.18;;
35993;SDS011;22066;54.274;18.578;2022-12-10T03:12:48;27.50;;;10.17;;
35993;SDS011;22066;54.274;18.578;2022-12-10T03:15:00;28.73;;;12.17;;
35993;SDS011;22066;54.274;18.578;2022-12-10T03:17:27;23.27;;;9.80;;
35993;SDS011;22066;54.274;18.578;2022-12-10T03:19:54;34.70;;;11.57;;
35993;SDS011;22066;54.274;18.578;2022-12-10T03:22:21;27.40;;;10.73;;
35993;SDS011;22066;54.274;18.578;2022-12-10T03:24:47;26.67;;;10.70;;
35993;SDS011;22066;54.274;18.578;2022-12-10T03:27:14;27.60;;;10.93;;
35993;SDS011;22066;54.274;18.578;2022-12-10T03:29:42;30.53;;;11.80;;
35993;SDS011;22066;54.274;18.578;2022-12-10T03:32:11;29.77;;;10.57;;
35993;SDS011;22066;54.274;18.578;2022-12-10T03:34:38;29.88;;;10.75;;
35993;SDS011;22066;54.274;18.578;2022-12-10T03:37:05;30.57;;;11.57;;
35993;SDS011;22066;54.274;18.578;2022-12-10T03:39:31;31.03;;;11.13;;
35993;SDS011;22066;54.274;18.578;2022-12-10T03:41:57;25.90;;;10.50;;
35993;SDS011;22066;54.274;18.578;2022-12-10T03:44:27;26.57;;;10.37;;
35993;SDS011;22066;54.274;18.578;2022-12-10T03:46:54;24.23;;;10.60;;
35993;SDS011;22066;54.274;18.578;2022-12-10T03:49:20;21.90;;;10.90;;
35993;SDS011;22066;54.274;18.578;2022-12-10T03:51:46;29.73;;;10.50;;
35993;SDS011;22066;54.274;18.578;2022-12-10T03:54:12;23.67;;;9.00;;
35993;SDS011;22066;54.274;18.578;2022-12-10T03:56:38;24.47;;;9.87;;
35993;SDS011;22066;54.274;18.578;2022-12-10T03:59:04;26.00;;;10.53;;
35993;SDS011;22066;54.274;18.578;2022-12-10T04:01:30;22.23;;;9.60;;
35993;SDS011;22066;54.274;18.578;2022-12-10T04:03:56;23.93;;;9.10;;
35993;SDS011;22066;54.274;18.578;2022-12-10T04:06:22;21.47;;;9.27;;
35993;SDS011;22066;54.274;18.578;2022-12-10T04:08:48;25.30;;;9.07;;
35993;SDS011;22066;54.274;18.578;2022-12-10T04:11:14;32.57;;;9.70;;
35993;SDS011;22066;54.274;18.578;2022-12-10T04:13:41;27.50;;;10.27;;
35993;SDS011;22066;54.274;18.578;2022-12-10T04:16:26;23.13;;;9.43;;
35993;SDS011;22066;54.274;18.578;2022-12-10T04:19:00;27.00;;;9.43;;
35993;SDS011;22066;54.274;18.578;2022-12-10T04:21:26;22.40;;;8.43;;
35993;SDS011;22066;54.274;18.578;2022-12-10T04:24:11;20.47;;;8.83;;
35993;SDS011;22066;54.274;18.578;2022-12-10T04:26:57;21.20;;;8.10;;
35993;SDS011;22066;54.274;18.578;2022-12-10T04:29:24;17.77;;;7.53;;
35993;SDS011;22066;54.274;18.578;2022-12-10T04:31:51;25.83;;;8.63;;
35993;SDS011;22066;54.274;18.578;2022-12-10T04:34:17;20.90;;;8.87;;
35993;SDS011;22066;54.274;18.578;2022-12-10T04:36:43;20.83;;;9.07;;
35993;SDS011;22066;54.274;18.578;2022-12-10T04:39:09;25.47;;;9.17;;
35993;SDS011;22066;54.274;18.578;2022-12-10T04:41:39;23.20;;;8.83;;
35993;SDS011;22066;54.274;18.578;2022-12-10T04:44:05;19.13;;;7.60;;
35993;SDS011;22066;54.274;18.578;2022-12-10T04:46:32;26.03;;;8.03;;
35993;SDS011;22066;54.274;18.578;2022-12-10T04:48:58;24.30;;;8.97;;
35993;SDS011;22066;54.274;18.578;2022-12-10T04:51:24;23.30;;;8.50;;
35993;SDS011;22066;54.274;18.578;2022-12-10T04:53:50;25.40;;;8.30;;
35993;SDS011;22066;54.274;18.578;2022-12-10T04:56:16;21.87;;;7.80;;
35993;SDS011;22066;54.274;18.578;2022-12-10T04:58:42;26.20;;;8.60;;
35993;SDS011;22066;54.274;18.578;2022-12-10T05:01:09;21.60;;;7.47;;
35993;SDS011;22066;54.274;18.578;2022-12-10T05:03:35;26.33;;;8.43;;
35993;SDS011;22066;54.274;18.578;2022-12-10T05:06:02;18.10;;;9.47;;
35993;SDS011;22066;54.274;18.578;2022-12-10T05:08:28;19.73;;;8.73;;
35993;SDS011;22066;54.274;18.578;2022-12-10T05:10:54;22.27;;;8.03;;
35993;SDS011;22066;54.274;18.578;2022-12-10T05:13:20;18.57;;;8.53;;
35993;SDS011;22066;54.274;18.578;2022-12-10T05:15:46;23.07;;;9.23;;
35993;SDS011;22066;54.274;18.578;2022-12-10T05:18:12;19.13;;;8.10;;
35993;SDS011;22066;54.274;18.578;2022-12-10T05:20:38;20.33;;;8.70;;
35993;SDS011;22066;54.274;18.578;2022-12-10T05:23:04;22.43;;;8.17;;
35993;SDS011;22066;54.274;18.578;2022-12-10T05:25:49;22.83;;;8.20;;
35993;SDS011;22066;54.274;18.578;2022-12-10T05:28:22;19.03;;;7.40;;
35993;SDS011;22066;54.274;18.578;2022-12-10T05:30:48;18.50;;;7.50;;
35993;SDS011;22066;54.274;18.578;2022-12-10T05:33:14;19.07;;;8.43;;
35993;SDS011;22066;54.274;18.578;2022-12-10T05:35:41;26.40;;;8.67;;
35993;SDS011;22066;54.274;18.578;2022-12-10T05:38:07;21.13;;;8.27;;
35993;SDS011;22066;54.274;18.578;2022-12-10T05:40:38;19.13;;;6.97;;
35993;SDS011;22066;54.274;18.578;2022-12-10T05:43:04;21.30;;;8.53;;
35993;SDS011;22066;54.274;18.578;2022-12-10T05:45:33;24.50;;;8.97;;
35993;SDS011;22066;54.274;18.578;2022-12-10T05:47:59;20.87;;;8.03;;
35993;SDS011;22066;54.274;18.578;2022-12-10T05:50:26;19.87;;;7.93;;
35993;SDS011;22066;54.274;18.578;2022-12-10T05:52:52;21.73;;;9.03;;
35993;SDS011;22066;54.274;18.578;2022-12-10T05:55:18;19.60;;;7.70;;
35993;SDS011;22066;54.274;18.578;2022-12-10T05:57:44;20.80;;;8.27;;
35993;SDS011;22066;54.274;18.578;2022-12-10T06:00:10;17.20;;;7.93;;
35993;SDS011;22066;54.274;18.578;2022-12-10T06:02:36;21.70;;;8.77;;
35993;SDS011;22066;54.274;18.578;2022-12-10T06:05:02;23.03;;;9.23;;
35993;SDS011;22066;54.274;18.578;2022-12-10T06:07:29;16.17;;;6.60;;
35993;SDS011;22066;54.274;18.578;2022-12-10T06:09:55;18.33;;;7.33;;
35993;SDS011;22066;54.274;18.578;2022-12-10T06:12:21;16.03;;;7.27;;
35993;SDS011;22066;54.274;18.578;2022-12-10T06:14:47;19.07;;;8.67;;
35993;SDS011;22066;54.274;18.578;2022-12-10T06:17:13;16.90;;;7.30;;
35993;SDS011;22066;54.274;18.578;2022-12-10T06:19:39;18.77;;;8.37;;
35993;SDS011;22066;54.274;18.578;2022-12-10T06:22:05;22.80;;;8.90;;
35993;SDS011;22066;54.274;18.578;2022-12-10T06:24:31;17.00;;;8.00;;
35993;SDS011;22066;54.274;18.578;2022-12-10T06:26:57;17.93;;;7.10;;
35993;SDS011;22066;54.274;18.578;2022-12-10T06:29:23;20.77;;;8.17;;
35993;SDS011;22066;54.274;18.578;2022-12-10T06:31:49;19.00;;;7.77;;
35993;SDS011;22066;54.274;18.578;2022-12-10T06:34:15;18.33;;;8.17;;
35993;SDS011;22066;54.274;18.578;2022-12-10T06:36:41;22.07;;;7.60;;
35993;SDS011;22066;54.274;18.578;2022-12-10T06:39:07;21.47;;;7.70;;
35993;SDS011;22066;54.274;18.578;2022-12-10T06:41:33;21.00;;;8.13;;
35993;SDS011;22066;54.274;18.578;2022-12-10T06:43:59;18.23;;;8.17;;
35993;SDS011;22066;54.274;18.578;2022-12-10T06:46:26;23.23;;;9.07;;
35993;SDS011;22066;54.274;18.578;2022-12-10T06:48:53;25.88;;;9.95;;
35993;SDS011;22066;54.274;18.578;2022-12-10T06:51:19;22.37;;;8.73;;
35993;SDS011;22066;54.274;18.578;2022-12-10T06:53:45;22.00;;;9.43;;
35993;SDS011;22066;54.274;18.578;2022-12-10T06:56:14;18.60;;;8.77;;
35993;SDS011;22066;54.274;18.578;2022-12-10T07:01:17;22.30;;;7.80;;
35993;SDS011;22066;54.274;18.578;2022-12-10T07:03:49;23.40;;;8.63;;
35993;SDS011;22066;54.274;18.578;2022-12-10T07:06:15;20.60;;;9.37;;
35993;SDS011;22066;54.274;18.578;2022-12-10T07:08:41;25.20;;;10.20;;
35993;SDS011;22066;54.274;18.578;2022-12-10T07:11:08;23.13;;;9.83;;
35993;SDS011;22066;54.274;18.578;2022-12-10T07:13:35;29.10;;;9.63;;
35993;SDS011;22066;54.274;18.578;2022-12-10T07:16:01;21.97;;;9.47;;
35993;SDS011;22066;54.274;18.578;2022-12-10T07:18:27;17.93;;;7.73;;
35993;SDS011;22066;54.274;18.578;2022-12-10T07:20:53;20.27;;;8.90;;
35993;SDS011;22066;54.274;18.578;2022-12-10T07:23:20;20.70;;;7.90;;
35993;SDS011;22066;54.274;18.578;2022-12-10T07:25:46;20.13;;;8.43;;
35993;SDS011;22066;54.274;18.578;2022-12-10T07:28:12;24.20;;;9.80;;
35993;SDS011;22066;54.274;18.578;2022-12-10T07:30:38;21.07;;;9.67;;
35993;SDS011;22066;54.274;18.578;2022-12-10T07:33:04;22.90;;;8.83;;
35993;SDS011;22066;54.274;18.578;2022-12-10T07:35:30;23.13;;;9.73;;
35993;SDS011;22066;54.274;18.578;2022-12-10T07:37:56;29.23;;;12.57;;
35993;SDS011;22066;54.274;18.578;2022-12-10T07:40:22;23.83;;;8.27;;
35993;SDS011;22066;54.274;18.578;2022-12-10T07:42:48;22.93;;;8.83;;
35993;SDS011;22066;54.274;18.578;2022-12-10T07:45:15;26.50;;;9.63;;
35993;SDS011;22066;54.274;18.578;2022-12-10T07:47:41;24.00;;;11.80;;
35993;SDS011;22066;54.274;18.578;2022-12-10T07:50:07;24.43;;;11.73;;
35993;SDS011;22066;54.274;18.578;2022-12-10T07:52:33;26.33;;;10.27;;
35993;SDS011;22066;54.274;18.578;2022-12-10T07:54:59;29.63;;;10.83;;
35993;SDS011;22066;54.274;18.578;2022-12-10T07:57:25;26.20;;;9.90;;
35993;SDS011;22066;54.274;18.578;2022-12-10T07:59:51;22.77;;;9.47;;
35993;SDS011;22066;54.274;18.578;2022-12-10T08:02:17;22.70;;;10.37;;
35993;SDS011;22066;54.274;18.578;2022-12-10T08:04:43;21.10;;;9.17;;
35993;SDS011;22066;54.274;18.578;2022-12-10T08:07:09;23.77;;;9.00;;
35993;SDS011;22066;54.274;18.578;2022-12-10T08:09:36;25.73;;;9.27;;
35993;SDS011;22066;54.274;18.578;2022-12-10T08:12:02;22.47;;;8.83;;
35993;SDS011;22066;54.274;18.578;2022-12-10T08:14:28;24.37;;;9.87;;
35993;SDS011;22066;54.274;18.578;2022-12-10T08:16:54;21.10;;;8.57;;
35993;SDS011;22066;54.274;18.578;2022-12-10T08:19:20;26.93;;;9.70;;
35993;SDS011;22066;54.274;18.578;2022-12-10T08:21:46;22.23;;;9.53;;
35993;SDS011;22066;54.274;18.578;2022-12-10T08:24:12;24.73;;;9.97;;
35993;SDS011;22066;54.274;18.578;2022-12-10T08:26:38;22.67;;;9.70;;
35993;SDS011;22066;54.274;18.578;2022-12-10T08:29:04;26.70;;;10.30;;
35993;SDS011;22066;54.274;18.578;2022-12-10T08:31:30;22.70;;;9.07;;
35993;SDS011;22066;54.274;18.578;2022-12-10T08:33:56;23.47;;;9.83;;
35993;SDS011;22066;54.274;18.578;2022-12-10T08:36:22;20.50;;;8.90;;
35993;SDS011;22066;54.274;18.578;2022-12-10T08:38:48;21.17;;;8.73;;
35993;SDS011;22066;54.274;18.578;2022-12-10T08:41:19;21.27;;;8.53;;
35993;SDS011;22066;54.274;18.578;2022-12-10T08:43:45;22.20;;;8.40;;
35993;SDS011;22066;54.274;18.578;2022-12-10T08:46:12;32.23;;;10.83;;
35993;SDS011;22066;54.274;18.578;2022-12-10T08:48:38;25.03;;;9.90;;
35993;SDS011;22066;54.274;18.578;2022-12-10T08:51:05;23.47;;;10.17;;
35993;SDS011;22066;54.274;18.578;2022-12-10T08:53:32;23.00;;;8.67;;
35993;SDS011;22066;54.274;18.578;2022-12-10T08:55:58;23.10;;;8.37;;
35993;SDS011;22066;54.274;18.578;2022-12-10T08:58:24;20.27;;;9.97;;
35993;SDS011;22066;54.274;18.578;2022-12-10T09:00:50;24.27;;;10.33;;
35993;SDS011;22066;54.274;18.578;2022-12-10T09:03:16;56.43;;;19.00;;
35993;SDS011;22066;54.274;18.578;2022-12-10T09:05:43;41.03;;;16.77;;
35993;SDS011;22066;54.274;18.578;2022-12-10T09:08:09;33.40;;;12.03;;
35993;SDS011;22066;54.274;18.578;2022-12-10T09:10:36;29.63;;;10.80;;
35993;SDS011;22066;54.274;18.578;2022-12-10T09:13:02;30.07;;;10.70;;
35993;SDS011;22066;54.274;18.578;2022-12-10T09:15:28;31.67;;;11.23;;
35993;SDS011;22066;54.274;18.578;2022-12-10T09:17:54;25.13;;;9.67;;
35993;SDS011;22066;54.274;18.578;2022-12-10T09:20:20;21.50;;;10.07;;
35993;SDS011;22066;54.274;18.578;2022-12-10T09:22:46;28.60;;;10.93;;
35993;SDS011;22066;54.274;18.578;2022-12-10T09:25:12;29.17;;;10.97;;
35993;SDS011;22066;54.274;18.578;2022-12-10T09:27:40;19.70;;;9.23;;
35993;SDS011;22066;54.274;18.578;2022-12-10T09:30:06;23.47;;;10.57;;
35993;SDS011;22066;54.274;18.578;2022-12-10T09:32:32;26.87;;;11.83;;
35993;SDS011;22066;54.274;18.578;2022-12-10T09:34:58;24.37;;;11.97;;
35993;SDS011;22066;54.274;18.578;2022-12-10T09:37:25;31.37;;;12.47;;
35993;SDS011;22066;54.274;18.578;2022-12-10T09:39:51;26.43;;;11.20;;
35993;SDS011;22066;54.274;18.578;2022-12-10T09:47:09;31.50;;;12.13;;
35993;SDS011;22066;54.274;18.578;2022-12-10T09:52:21;26.57;;;10.77;;
35993;SDS011;22066;54.274;18.578;2022-12-10T09:54:50;31.52;;;11.10;;
35993;SDS011;22066;54.274;18.578;2022-12-10T09:59:53;27.93;;;11.90;;
35993;SDS011;22066;54.274;18.578;2022-12-10T10:02:24;22.00;;;8.63;;
35993;SDS011;22066;54.274;18.578;2022-12-10T10:04:52;34.23;;;13.13;;
35993;SDS011;22066;54.274;18.578;2022-12-10T10:09:45;30.17;;;11.40;;
35993;SDS011;22066;54.274;18.578;2022-12-10T10:12:14;32.27;;;12.80;;
35993;SDS011;22066;54.274;18.578;2022-12-10T10:14:42;26.30;;;10.77;;
35993;SDS011;22066;54.274;18.578;2022-12-10T10:17:09;30.17;;;13.77;;
35993;SDS011;22066;54.274;18.578;2022-12-10T10:19:37;26.53;;;10.90;;
35993;SDS011;22066;54.274;18.578;2022-12-10T10:22:04;25.83;;;11.53;;
35993;SDS011;22066;54.274;18.578;2022-12-10T10:24:35;28.03;;;11.77;;
35993;SDS011;22066;54.274;18.578;2022-12-10T10:27:08;28.47;;;12.07;;
35993;SDS011;22066;54.274;18.578;2022-12-10T10:29:36;24.27;;;10.87;;
35993;SDS011;22066;54.274;18.578;2022-12-10T10:32:24;27.67;;;12.03;;
35993;SDS011;22066;54.274;18.578;2022-12-10T10:34:53;25.43;;;11.70;;
35993;SDS011;22066;54.274;18.578;2022-12-10T10:39:49;28.53;;;12.10;;
35993;SDS011;22066;54.274;18.578;2022-12-10T10:42:37;30.17;;;11.57;;
35993;SDS011;22066;54.274;18.578;2022-12-10T10:45:03;29.47;;;12.87;;
35993;SDS011;22066;54.274;18.578;2022-12-10T10:47:30;29.88;;;11.98;;
35993;SDS011;22066;54.274;18.578;2022-12-10T10:49:57;31.70;;;13.13;;
35993;SDS011;22066;54.274;18.578;2022-12-10T10:52:25;29.97;;;11.93;;
35993;SDS011;22066;54.274;18.578;2022-12-10T10:54:53;29.87;;;13.07;;
35993;SDS011;22066;54.274;18.578;2022-12-10T10:59:45;28.67;;;12.43;;
35993;SDS011;22066;54.274;18.578;2022-12-10T11:02:19;29.53;;;12.63;;
35993;SDS011;22066;54.274;18.578;2022-12-10T11:04:50;26.30;;;11.23;;
35993;SDS011;22066;54.274;18.578;2022-12-10T11:07:25;26.27;;;10.70;;
35993;SDS011;22066;54.274;18.578;2022-12-10T11:09:52;23.50;;;11.37;;
35993;SDS011;22066;54.274;18.578;2022-12-10T11:17:24;23.80;;;10.50;;
35993;SDS011;22066;54.274;18.578;2022-12-10T11:22:24;26.93;;;11.13;;
35993;SDS011;22066;54.274;18.578;2022-12-10T11:24:51;29.30;;;12.27;;
35993;SDS011;22066;54.274;18.578;2022-12-10T11:27:25;36.47;;;12.53;;
35993;SDS011;22066;54.274;18.578;2022-12-10T11:32:30;24.37;;;10.83;;
35993;SDS011;22066;54.274;18.578;2022-12-10T11:45:24;29.37;;;11.70;;
35993;SDS011;22066;54.274;18.578;2022-12-10T11:50:26;35.40;;;13.67;;
35993;SDS011;22066;54.274;18.578;2022-12-10T12:06:16;29.37;;;14.33;;
35993;SDS011;22066;54.274;18.578;2022-12-10T12:11:14;35.40;;;12.27;;
35993;SDS011;22066;54.274;18.578;2022-12-10T12:16:18;35.07;;;15.07;;
35993;SDS011;22066;54.274;18.578;2022-12-10T12:19:09;29.83;;;14.18;;
35993;SDS011;22066;54.274;18.578;2022-12-10T12:21:31;33.67;;;14.53;;
35993;SDS011;22066;54.274;18.578;2022-12-10T12:27:05;37.87;;;15.03;;
35993;SDS011;22066;54.274;18.578;2022-12-10T12:29:35;32.50;;;15.00;;
35993;SDS011;22066;54.274;18.578;2022-12-10T12:32:04;34.87;;;14.30;;
35993;SDS011;22066;54.274;18.578;2022-12-10T12:34:49;29.83;;;13.20;;
35993;SDS011;22066;54.274;18.578;2022-12-10T12:37:16;31.97;;;14.23;;
35993;SDS011;22066;54.274;18.578;2022-12-10T12:39:43;32.50;;;14.33;;
35993;SDS011;22066;54.274;18.578;2022-12-10T12:49:45;28.17;;;12.40;;
35993;SDS011;22066;54.274;18.578;2022-12-10T12:54:42;30.07;;;13.97;;
35993;SDS011;22066;54.274;18.578;2022-12-10T12:57:16;35.30;;;13.70;;
35993;SDS011;22066;54.274;18.578;2022-12-10T13:04:49;33.17;;;13.87;;
35993;SDS011;22066;54.274;18.578;2022-12-10T13:09:45;27.03;;;12.20;;
35993;SDS011;22066;54.274;18.578;2022-12-10T13:12:31;30.63;;;11.70;;
35993;SDS011;22066;54.274;18.578;2022-12-10T13:17:26;27.37;;;12.60;;
35993;SDS011;22066;54.274;18.578;2022-12-10T13:25:15;31.83;;;13.23;;
35993;SDS011;22066;54.274;18.578;2022-12-10T13:38:22;36.87;;;13.97;;
35993;SDS011;22066;54.274;18.578;2022-12-10T13:40:35;40.37;;;16.37;;
35993;SDS011;22066;54.274;18.578;2022-12-10T13:48:50;44.83;;;18.10;;
35993;SDS011;22066;54.274;18.578;2022-12-10T14:01:26;60.17;;;20.27;;
35993;SDS011;22066;54.274;18.578;2022-12-10T14:06:22;49.03;;;17.83;;
35993;SDS011;22066;54.274;18.578;2022-12-10T14:08:54;52.10;;;18.93;;
35993;SDS011;22066;54.274;18.578;2022-12-10T14:11:22;45.43;;;16.73;;
35993;SDS011;22066;54.274;18.578;2022-12-10T14:13:51;42.50;;;15.73;;
35993;SDS011;22066;54.274;18.578;2022-12-10T14:16:18;44.57;;;16.43;;
35993;SDS011;22066;54.274;18.578;2022-12-10T14:18:51;40.37;;;16.57;;
35993;SDS011;22066;54.274;18.578;2022-12-10T14:21:17;35.37;;;15.00;;
35993;SDS011;22066;54.274;18.578;2022-12-10T14:23:45;40.63;;;15.97;;
35993;SDS011;22066;54.274;18.578;2022-12-10T14:28:39;43.30;;;16.23;;
35993;SDS011;22066;54.274;18.578;2022-12-10T14:31:06;45.78;;;16.13;;
35993;SDS011;22066;54.274;18.578;2022-12-10T14:33:35;37.40;;;16.10;;
35993;SDS011;22066;54.274;18.578;2022-12-10T14:36:01;39.87;;;17.17;;
35993;SDS011;22066;54.274;18.578;2022-12-10T14:38:31;44.50;;;19.07;;
35993;SDS011;22066;54.274;18.578;2022-12-10T14:40:59;48.30;;;19.40;;
35993;SDS011;22066;54.274;18.578;2022-12-10T14:43:46;38.97;;;16.87;;
35993;SDS011;22066;54.274;18.578;2022-12-10T14:46:23;41.30;;;17.33;;
35993;SDS011;22066;54.274;18.578;2022-12-10T14:51:16;36.93;;;14.87;;
35993;SDS011;22066;54.274;18.578;2022-12-10T14:53:44;33.60;;;13.75;;
35993;SDS011;22066;54.274;18.578;2022-12-10T14:56:11;36.03;;;15.80;;
35993;SDS011;22066;54.274;18.578;2022-12-10T14:59:02;34.83;;;15.17;;
35993;SDS011;22066;54.274;18.578;2022-12-10T15:01:27;38.20;;;17.20;;
35993;SDS011;22066;54.274;18.578;2022-12-10T15:03:54;37.97;;;15.48;;
35993;SDS011;22066;54.274;18.578;2022-12-10T15:06:21;36.60;;;15.48;;
35993;SDS011;22066;54.274;18.578;2022-12-10T15:08:48;37.80;;;15.57;;
35993;SDS011;22066;54.274;18.578;2022-12-10T15:11:18;42.43;;;16.10;;
35993;SDS011;22066;54.274;18.578;2022-12-10T15:13:46;40.30;;;16.00;;
35993;SDS011;22066;54.274;18.578;2022-12-10T15:16:16;41.50;;;16.27;;
35993;SDS011;22066;54.274;18.578;2022-12-10T15:18:42;40.73;;;16.30;;
35993;SDS011;22066;54.274;18.578;2022-12-10T15:23:38;40.97;;;17.45;;
35993;SDS011;22066;54.274;18.578;2022-12-10T15:26:21;43.90;;;17.07;;
35993;SDS011;22066;54.274;18.578;2022-12-10T15:28:49;38.07;;;15.70;;
35993;SDS011;22066;54.274;18.578;2022-12-10T15:31:28;42.27;;;17.33;;
35993;SDS011;22066;54.274;18.578;2022-12-10T15:34:00;39.90;;;17.03;;
35993;SDS011;22066;54.274;18.578;2022-12-10T15:39:05;47.50;;;17.60;;
35993;SDS011;22066;54.274;18.578;2022-12-10T15:41:48;43.07;;;17.20;;
35993;SDS011;22066;54.274;18.578;2022-12-10T15:44:58;45.93;;;16.20;;
35993;SDS011;22066;54.274;18.578;2022-12-10T15:49:33;41.97;;;17.77;;
35993;SDS011;22066;54.274;18.578;2022-12-10T15:51:59;42.53;;;17.20;;
35993;SDS011;22066;54.274;18.578;2022-12-10T15:57:03;47.67;;;17.37;;
35993;SDS011;22066;54.274;18.578;2022-12-10T15:59:30;42.57;;;16.67;;
35993;SDS011;22066;54.274;18.578;2022-12-10T16:01:56;49.83;;;19.33;;
35993;SDS011;22066;54.274;18.578;2022-12-10T16:04:23;48.83;;;17.67;;
35993;SDS011;22066;54.274;18.578;2022-12-10T16:06:49;47.00;;;18.60;;
35993;SDS011;22066;54.274;18.578;2022-12-10T16:09:15;52.90;;;17.97;;
35993;SDS011;22066;54.274;18.578;2022-12-10T16:11:41;49.13;;;18.90;;
35993;SDS011;22066;54.274;18.578;2022-12-10T16:14:08;53.23;;;20.23;;
35993;SDS011;22066;54.274;18.578;2022-12-10T16:16:35;50.63;;;21.15;;
35993;SDS011;22066;54.274;18.578;2022-12-10T16:19:01;56.83;;;20.80;;
35993;SDS011;22066;54.274;18.578;2022-12-10T16:21:27;56.83;;;22.57;;
35993;SDS011;22066;54.274;18.578;2022-12-10T16:23:53;54.40;;;20.93;;
35993;SDS011;22066;54.274;18.578;2022-12-10T16:26:20;54.43;;;21.87;;
35993;SDS011;22066;54.274;18.578;2022-12-10T16:28:47;51.13;;;20.83;;
35993;SDS011;22066;54.274;18.578;2022-12-10T16:31:18;56.27;;;21.27;;
35993;SDS011;22066;54.274;18.578;2022-12-10T16:33:44;53.90;;;20.90;;
35993;SDS011;22066;54.274;18.578;2022-12-10T16:36:12;52.73;;;19.77;;
35993;SDS011;22066;54.274;18.578;2022-12-10T16:38:38;50.67;;;19.33;;
35993;SDS011;22066;54.274;18.578;2022-12-10T16:41:09;49.97;;;20.37;;
35993;SDS011;22066;54.274;18.578;2022-12-10T16:43:36;50.13;;;19.90;;
35993;SDS011;22066;54.274;18.578;2022-12-10T16:46:02;51.47;;;19.53;;
35993;SDS011;22066;54.274;18.578;2022-12-10T16:48:29;55.90;;;20.50;;